sensor_id;sensor_type;location;lat;lon;timestamp;P1;durP1;ratioP1;P2;durP2;ratioP2
8060;SDS011;4073;42.626;25.386;2022-11-20T00:00:04;8.03;;;5.47;;
8060;SDS011;4073;42.626;25.386;2022-11-20T00:02:30;17.00;;;5.43;;
8060;SDS011;4073;42.626;25.386;2022-11-20T00:04:56;14.27;;;6.00;;
8060;SDS011;4073;42.626;25.386;2022-11-20T00:07:21;9.57;;;5.63;;
8060;SDS011;4073;42.626;25.386;2022-11-20T00:09:46;7.80;;;4.67;;
8060;SDS011;4073;42.626;25.386;2022-11-20T00:12:12;9.97;;;5.17;;
8060;SDS011;4073;42.626;25.386;2022-11-20T00:14:38;10.63;;;5.07;;
8060;SDS011;4073;42.626;25.386;2022-11-20T00:17:03;13.63;;;5.80;;
8060;SDS011;4073;42.626;25.386;2022-11-20T00:19:29;13.13;;;6.63;;
8060;SDS011;4073;42.626;25.386;2022-11-20T00:21:54;9.40;;;4.57;;
8060;SDS011;4073;42.626;25.386;2022-11-20T00:24:20;17.83;;;6.80;;
8060;SDS011;4073;42.626;25.386;2022-11-20T00:26:46;11.37;;;5.07;;
8060;SDS011;4073;42.626;25.386;2022-11-20T00:29:11;11.17;;;5.07;;
8060;SDS011;4073;42.626;25.386;2022-11-20T00:31:37;12.67;;;5.90;;
8060;SDS011;4073;42.626;25.386;2022-11-20T00:34:02;14.77;;;5.40;;
8060;SDS011;4073;42.626;25.386;2022-11-20T00:36:28;13.10;;;5.63;;
8060;SDS011;4073;42.626;25.386;2022-11-20T00:38:57;11.80;;;4.50;;
8060;SDS011;4073;42.626;25.386;2022-11-20T00:41:23;15.07;;;5.37;;
8060;SDS011;4073;42.626;25.386;2022-11-20T00:43:53;13.43;;;5.60;;
8060;SDS011;4073;42.626;25.386;2022-11-20T00:46:21;10.57;;;4.77;;
8060;SDS011;4073;42.626;25.386;2022-11-20T00:48:49;10.53;;;5.13;;
8060;SDS011;4073;42.626;25.386;2022-11-20T00:51:16;11.90;;;5.33;;
8060;SDS011;4073;42.626;25.386;2022-11-20T00:53:43;13.65;;;5.32;;
8060;SDS011;4073;42.626;25.386;2022-11-20T00:56:10;15.00;;;6.20;;
8060;SDS011;4073;42.626;25.386;2022-11-20T00:58:38;16.57;;;5.33;;
8060;SDS011;4073;42.626;25.386;2022-11-20T01:01:09;14.43;;;6.30;;
8060;SDS011;4073;42.626;25.386;2022-11-20T01:03:40;16.47;;;5.57;;
8060;SDS011;4073;42.626;25.386;2022-11-20T01:06:11;14.17;;;6.17;;
8060;SDS011;4073;42.626;25.386;2022-11-20T01:08:38;11.33;;;5.57;;
8060;SDS011;4073;42.626;25.386;2022-11-20T01:11:09;7.97;;;5.23;;
8060;SDS011;4073;42.626;25.386;2022-11-20T01:13:38;13.87;;;4.80;;
8060;SDS011;4073;42.626;25.386;2022-11-20T01:16:15;15.60;;;5.07;;
8060;SDS011;4073;42.626;25.386;2022-11-20T01:18:46;11.07;;;5.00;;
8060;SDS011;4073;42.626;25.386;2022-11-20T01:21:17;11.80;;;5.43;;
8060;SDS011;4073;42.626;25.386;2022-11-20T01:23:47;14.20;;;4.90;;
8060;SDS011;4073;42.626;25.386;2022-11-20T01:26:15;13.03;;;5.93;;
8060;SDS011;4073;42.626;25.386;2022-11-20T01:28:42;9.00;;;5.60;;
8060;SDS011;4073;42.626;25.386;2022-11-20T01:31:12;9.70;;;5.47;;
8060;SDS011;4073;42.626;25.386;2022-11-20T01:33:38;14.03;;;4.90;;
8060;SDS011;4073;42.626;25.386;2022-11-20T01:36:05;13.30;;;5.70;;
8060;SDS011;4073;42.626;25.386;2022-11-20T01:38:31;11.50;;;5.37;;
8060;SDS011;4073;42.626;25.386;2022-11-20T01:40:57;7.27;;;4.70;;
8060;SDS011;4073;42.626;25.386;2022-11-20T01:43:23;12.57;;;5.87;;
8060;SDS011;4073;42.626;25.386;2022-11-20T01:48:42;9.03;;;4.47;;
8060;SDS011;4073;42.626;25.386;2022-11-20T01:51:39;11.77;;;4.60;;
8060;SDS011;4073;42.626;25.386;2022-11-20T01:54:07;14.00;;;4.60;;
8060;SDS011;4073;42.626;25.386;2022-11-20T01:56:39;11.80;;;5.53;;
8060;SDS011;4073;42.626;25.386;2022-11-20T01:59:07;15.67;;;5.90;;
8060;SDS011;4073;42.626;25.386;2022-11-20T02:01:35;9.87;;;4.73;;
8060;SDS011;4073;42.626;25.386;2022-11-20T02:04:01;10.50;;;5.40;;
8060;SDS011;4073;42.626;25.386;2022-11-20T02:07:00;10.50;;;5.07;;
8060;SDS011;4073;42.626;25.386;2022-11-20T02:09:22;13.23;;;6.00;;
8060;SDS011;4073;42.626;25.386;2022-11-20T02:11:47;10.77;;;5.57;;
8060;SDS011;4073;42.626;25.386;2022-11-20T02:14:14;11.07;;;5.87;;
8060;SDS011;4073;42.626;25.386;2022-11-20T02:16:40;11.80;;;5.40;;
8060;SDS011;4073;42.626;25.386;2022-11-20T02:19:13;18.73;;;5.23;;
8060;SDS011;4073;42.626;25.386;2022-11-20T02:24:19;11.30;;;4.70;;
8060;SDS011;4073;42.626;25.386;2022-11-20T02:26:59;11.20;;;4.60;;
8060;SDS011;4073;42.626;25.386;2022-11-20T02:32:03;10.37;;;4.23;;
8060;SDS011;4073;42.626;25.386;2022-11-20T02:34:28;8.70;;;4.87;;
8060;SDS011;4073;42.626;25.386;2022-11-20T02:36:54;12.40;;;4.93;;
8060;SDS011;4073;42.626;25.386;2022-11-20T02:39:21;9.67;;;4.37;;
8060;SDS011;4073;42.626;25.386;2022-11-20T02:41:50;10.53;;;4.83;;
8060;SDS011;4073;42.626;25.386;2022-11-20T02:44:18;12.17;;;5.07;;
8060;SDS011;4073;42.626;25.386;2022-11-20T02:46:44;14.27;;;5.03;;
8060;SDS011;4073;42.626;25.386;2022-11-20T02:49:10;14.30;;;5.43;;
8060;SDS011;4073;42.626;25.386;2022-11-20T02:51:35;11.13;;;4.53;;
8060;SDS011;4073;42.626;25.386;2022-11-20T02:54:01;9.83;;;4.87;;
8060;SDS011;4073;42.626;25.386;2022-11-20T02:56:27;9.87;;;4.67;;
8060;SDS011;4073;42.626;25.386;2022-11-20T02:58:52;12.37;;;4.77;;
8060;SDS011;4073;42.626;25.386;2022-11-20T03:01:18;11.63;;;4.00;;
8060;SDS011;4073;42.626;25.386;2022-11-20T03:03:43;10.70;;;4.07;;
8060;SDS011;4073;42.626;25.386;2022-11-20T03:06:09;12.83;;;4.80;;
8060;SDS011;4073;42.626;25.386;2022-11-20T03:08:34;7.93;;;4.57;;
8060;SDS011;4073;42.626;25.386;2022-11-20T03:11:04;9.03;;;4.10;;
8060;SDS011;4073;42.626;25.386;2022-11-20T03:13:31;10.20;;;4.37;;
8060;SDS011;4073;42.626;25.386;2022-11-20T03:15:56;10.97;;;4.27;;
8060;SDS011;4073;42.626;25.386;2022-11-20T03:18:22;8.47;;;4.17;;
8060;SDS011;4073;42.626;25.386;2022-11-20T03:20:47;10.60;;;3.80;;
8060;SDS011;4073;42.626;25.386;2022-11-20T03:23:13;7.27;;;4.10;;
8060;SDS011;4073;42.626;25.386;2022-11-20T03:25:38;13.23;;;4.13;;
8060;SDS011;4073;42.626;25.386;2022-11-20T03:28:04;10.23;;;4.83;;
8060;SDS011;4073;42.626;25.386;2022-11-20T03:30:29;9.37;;;3.70;;
8060;SDS011;4073;42.626;25.386;2022-11-20T03:32:54;9.90;;;4.43;;
8060;SDS011;4073;42.626;25.386;2022-11-20T03:35:20;9.33;;;4.40;;
8060;SDS011;4073;42.626;25.386;2022-11-20T03:37:45;10.60;;;3.90;;
8060;SDS011;4073;42.626;25.386;2022-11-20T03:40:11;8.77;;;4.20;;
8060;SDS011;4073;42.626;25.386;2022-11-20T03:42:37;14.20;;;4.30;;
8060;SDS011;4073;42.626;25.386;2022-11-20T03:45:12;8.33;;;3.63;;
8060;SDS011;4073;42.626;25.386;2022-11-20T03:47:41;8.57;;;5.07;;
8060;SDS011;4073;42.626;25.386;2022-11-20T03:50:08;9.57;;;4.53;;
8060;SDS011;4073;42.626;25.386;2022-11-20T03:52:35;9.67;;;4.10;;
8060;SDS011;4073;42.626;25.386;2022-11-20T03:55:00;8.63;;;4.33;;
8060;SDS011;4073;42.626;25.386;2022-11-20T03:57:26;6.20;;;3.53;;
8060;SDS011;4073;42.626;25.386;2022-11-20T03:59:51;10.83;;;5.60;;
8060;SDS011;4073;42.626;25.386;2022-11-20T04:02:17;10.93;;;4.10;;
8060;SDS011;4073;42.626;25.386;2022-11-20T04:04:42;11.20;;;4.13;;
8060;SDS011;4073;42.626;25.386;2022-11-20T04:07:08;8.13;;;4.10;;
8060;SDS011;4073;42.626;25.386;2022-11-20T04:09:33;10.50;;;4.00;;
8060;SDS011;4073;42.626;25.386;2022-11-20T04:11:59;8.43;;;3.57;;
8060;SDS011;4073;42.626;25.386;2022-11-20T04:14:24;7.83;;;4.00;;
8060;SDS011;4073;42.626;25.386;2022-11-20T04:16:50;8.73;;;3.80;;
8060;SDS011;4073;42.626;25.386;2022-11-20T04:19:15;12.40;;;4.40;;
8060;SDS011;4073;42.626;25.386;2022-11-20T04:21:42;8.73;;;4.60;;
8060;SDS011;4073;42.626;25.386;2022-11-20T04:24:08;11.27;;;4.10;;
8060;SDS011;4073;42.626;25.386;2022-11-20T04:26:35;10.43;;;4.20;;
8060;SDS011;4073;42.626;25.386;2022-11-20T04:29:02;6.40;;;3.57;;
8060;SDS011;4073;42.626;25.386;2022-11-20T04:31:29;10.17;;;3.60;;
8060;SDS011;4073;42.626;25.386;2022-11-20T04:33:58;4.67;;;3.60;;
8060;SDS011;4073;42.626;25.386;2022-11-20T04:36:26;10.07;;;3.73;;
8060;SDS011;4073;42.626;25.386;2022-11-20T04:38:53;7.53;;;3.63;;
8060;SDS011;4073;42.626;25.386;2022-11-20T04:41:20;8.47;;;3.27;;
8060;SDS011;4073;42.626;25.386;2022-11-20T04:43:51;12.10;;;3.97;;
8060;SDS011;4073;42.626;25.386;2022-11-20T04:46:18;10.37;;;3.90;;
8060;SDS011;4073;42.626;25.386;2022-11-20T04:48:45;13.73;;;4.87;;
8060;SDS011;4073;42.626;25.386;2022-11-20T04:51:12;5.40;;;3.70;;
8060;SDS011;4073;42.626;25.386;2022-11-20T04:53:37;6.70;;;3.83;;
8060;SDS011;4073;42.626;25.386;2022-11-20T04:56:04;8.83;;;3.83;;
8060;SDS011;4073;42.626;25.386;2022-11-20T04:58:31;5.43;;;3.00;;
8060;SDS011;4073;42.626;25.386;2022-11-20T05:01:01;7.83;;;3.43;;
8060;SDS011;4073;42.626;25.386;2022-11-20T05:03:35;11.57;;;3.60;;
8060;SDS011;4073;42.626;25.386;2022-11-20T05:06:01;11.17;;;4.13;;
8060;SDS011;4073;42.626;25.386;2022-11-20T05:08:29;9.23;;;3.53;;
8060;SDS011;4073;42.626;25.386;2022-11-20T05:10:59;13.70;;;4.40;;
8060;SDS011;4073;42.626;25.386;2022-11-20T05:13:32;10.60;;;3.80;;
8060;SDS011;4073;42.626;25.386;2022-11-20T05:16:08;10.50;;;4.77;;
8060;SDS011;4073;42.626;25.386;2022-11-20T05:18:35;7.10;;;3.60;;
8060;SDS011;4073;42.626;25.386;2022-11-20T05:21:01;10.97;;;4.03;;
8060;SDS011;4073;42.626;25.386;2022-11-20T05:23:28;12.33;;;4.30;;
8060;SDS011;4073;42.626;25.386;2022-11-20T05:25:55;9.67;;;4.53;;
8060;SDS011;4073;42.626;25.386;2022-11-20T05:28:21;8.93;;;4.03;;
8060;SDS011;4073;42.626;25.386;2022-11-20T05:30:47;11.17;;;4.70;;
8060;SDS011;4073;42.626;25.386;2022-11-20T05:33:13;6.27;;;3.80;;
8060;SDS011;4073;42.626;25.386;2022-11-20T05:35:39;12.63;;;4.27;;
8060;SDS011;4073;42.626;25.386;2022-11-20T05:38:05;6.90;;;3.97;;
8060;SDS011;4073;42.626;25.386;2022-11-20T05:40:30;8.70;;;3.83;;
8060;SDS011;4073;42.626;25.386;2022-11-20T05:42:56;10.27;;;4.07;;
8060;SDS011;4073;42.626;25.386;2022-11-20T05:45:21;10.17;;;5.13;;
8060;SDS011;4073;42.626;25.386;2022-11-20T05:47:47;13.60;;;3.93;;
8060;SDS011;4073;42.626;25.386;2022-11-20T05:50:13;14.50;;;4.60;;
8060;SDS011;4073;42.626;25.386;2022-11-20T05:52:39;6.37;;;4.00;;
8060;SDS011;4073;42.626;25.386;2022-11-20T05:55:05;15.10;;;8.37;;
8060;SDS011;4073;42.626;25.386;2022-11-20T05:57:31;13.90;;;7.10;;
8060;SDS011;4073;42.626;25.386;2022-11-20T05:59:57;9.43;;;6.00;;
8060;SDS011;4073;42.626;25.386;2022-11-20T06:02:22;24.73;;;10.83;;
8060;SDS011;4073;42.626;25.386;2022-11-20T06:04:48;11.60;;;4.87;;
8060;SDS011;4073;42.626;25.386;2022-11-20T06:07:14;8.17;;;4.53;;
8060;SDS011;4073;42.626;25.386;2022-11-20T06:09:39;12.50;;;4.77;;
8060;SDS011;4073;42.626;25.386;2022-11-20T06:12:05;7.90;;;4.50;;
8060;SDS011;4073;42.626;25.386;2022-11-20T06:14:31;11.83;;;5.13;;
8060;SDS011;4073;42.626;25.386;2022-11-20T06:16:56;7.87;;;4.43;;
8060;SDS011;4073;42.626;25.386;2022-11-20T06:19:22;9.33;;;4.00;;
8060;SDS011;4073;42.626;25.386;2022-11-20T06:21:48;7.30;;;4.20;;
8060;SDS011;4073;42.626;25.386;2022-11-20T06:24:17;6.17;;;3.53;;
8060;SDS011;4073;42.626;25.386;2022-11-20T06:26:43;7.13;;;3.80;;
8060;SDS011;4073;42.626;25.386;2022-11-20T06:29:09;10.37;;;4.60;;
8060;SDS011;4073;42.626;25.386;2022-11-20T06:31:34;10.50;;;4.63;;
8060;SDS011;4073;42.626;25.386;2022-11-20T06:34:03;10.20;;;4.43;;
8060;SDS011;4073;42.626;25.386;2022-11-20T06:36:30;9.57;;;5.47;;
8060;SDS011;4073;42.626;25.386;2022-11-20T06:38:55;9.63;;;4.10;;
8060;SDS011;4073;42.626;25.386;2022-11-20T06:41:21;11.93;;;4.47;;
8060;SDS011;4073;42.626;25.386;2022-11-20T06:43:47;6.57;;;4.00;;
8060;SDS011;4073;42.626;25.386;2022-11-20T06:46:14;9.50;;;4.70;;
8060;SDS011;4073;42.626;25.386;2022-11-20T06:48:42;12.80;;;5.90;;
8060;SDS011;4073;42.626;25.386;2022-11-20T06:51:08;11.77;;;5.53;;
8060;SDS011;4073;42.626;25.386;2022-11-20T06:53:34;9.80;;;4.87;;
8060;SDS011;4073;42.626;25.386;2022-11-20T06:56:00;11.13;;;4.90;;
8060;SDS011;4073;42.626;25.386;2022-11-20T06:58:29;10.23;;;4.50;;
8060;SDS011;4073;42.626;25.386;2022-11-20T07:01:00;10.43;;;3.93;;
8060;SDS011;4073;42.626;25.386;2022-11-20T07:03:30;9.40;;;6.13;;
8060;SDS011;4073;42.626;25.386;2022-11-20T07:05:56;10.13;;;5.07;;
8060;SDS011;4073;42.626;25.386;2022-11-20T07:08:23;11.23;;;4.43;;
8060;SDS011;4073;42.626;25.386;2022-11-20T07:10:49;12.07;;;5.10;;
8060;SDS011;4073;42.626;25.386;2022-11-20T07:13:14;10.33;;;5.53;;
8060;SDS011;4073;42.626;25.386;2022-11-20T07:15:40;9.37;;;4.23;;
8060;SDS011;4073;42.626;25.386;2022-11-20T07:18:05;12.97;;;4.90;;
8060;SDS011;4073;42.626;25.386;2022-11-20T07:20:31;13.73;;;5.80;;
8060;SDS011;4073;42.626;25.386;2022-11-20T07:22:57;11.60;;;5.27;;
8060;SDS011;4073;42.626;25.386;2022-11-20T07:25:23;11.60;;;5.60;;
8060;SDS011;4073;42.626;25.386;2022-11-20T07:27:50;12.03;;;5.07;;
8060;SDS011;4073;42.626;25.386;2022-11-20T07:30:16;9.23;;;4.27;;
8060;SDS011;4073;42.626;25.386;2022-11-20T07:32:41;9.27;;;5.10;;
8060;SDS011;4073;42.626;25.386;2022-11-20T07:35:07;11.37;;;4.93;;
8060;SDS011;4073;42.626;25.386;2022-11-20T07:37:36;8.33;;;3.87;;
8060;SDS011;4073;42.626;25.386;2022-11-20T07:40:02;11.97;;;5.27;;
8060;SDS011;4073;42.626;25.386;2022-11-20T07:42:28;9.00;;;4.53;;
8060;SDS011;4073;42.626;25.386;2022-11-20T07:44:54;9.50;;;4.70;;
8060;SDS011;4073;42.626;25.386;2022-11-20T07:47:19;11.80;;;4.33;;
8060;SDS011;4073;42.626;25.386;2022-11-20T07:49:44;10.50;;;4.27;;
8060;SDS011;4073;42.626;25.386;2022-11-20T07:52:10;9.37;;;3.83;;
8060;SDS011;4073;42.626;25.386;2022-11-20T07:54:35;10.97;;;6.67;;
8060;SDS011;4073;42.626;25.386;2022-11-20T07:57:01;9.57;;;5.50;;
8060;SDS011;4073;42.626;25.386;2022-11-20T07:59:26;13.03;;;7.13;;
8060;SDS011;4073;42.626;25.386;2022-11-20T08:01:51;9.50;;;7.57;;
8060;SDS011;4073;42.626;25.386;2022-11-20T08:04:17;11.00;;;6.67;;
8060;SDS011;4073;42.626;25.386;2022-11-20T08:06:42;17.60;;;6.90;;
8060;SDS011;4073;42.626;25.386;2022-11-20T08:09:10;17.30;;;6.03;;
8060;SDS011;4073;42.626;25.386;2022-11-20T08:11:35;15.77;;;7.23;;
8060;SDS011;4073;42.626;25.386;2022-11-20T08:14:19;14.00;;;7.67;;
8060;SDS011;4073;42.626;25.386;2022-11-20T08:16:49;11.93;;;6.33;;
8060;SDS011;4073;42.626;25.386;2022-11-20T08:19:15;9.67;;;5.90;;
8060;SDS011;4073;42.626;25.386;2022-11-20T08:21:42;13.47;;;7.00;;
8060;SDS011;4073;42.626;25.386;2022-11-20T08:24:09;9.70;;;4.47;;
8060;SDS011;4073;42.626;25.386;2022-11-20T08:26:36;11.23;;;4.83;;
8060;SDS011;4073;42.626;25.386;2022-11-20T08:29:03;9.37;;;4.77;;
8060;SDS011;4073;42.626;25.386;2022-11-20T08:31:29;8.50;;;4.90;;
8060;SDS011;4073;42.626;25.386;2022-11-20T08:33:55;9.83;;;4.53;;
8060;SDS011;4073;42.626;25.386;2022-11-20T08:36:21;10.60;;;4.57;;
8060;SDS011;4073;42.626;25.386;2022-11-20T08:38:51;12.47;;;4.60;;
8060;SDS011;4073;42.626;25.386;2022-11-20T08:41:20;9.60;;;5.13;;
8060;SDS011;4073;42.626;25.386;2022-11-20T08:43:54;10.47;;;4.97;;
8060;SDS011;4073;42.626;25.386;2022-11-20T08:46:22;13.73;;;5.47;;
8060;SDS011;4073;42.626;25.386;2022-11-20T08:48:49;13.50;;;5.60;;
8060;SDS011;4073;42.626;25.386;2022-11-20T08:51:14;12.33;;;5.13;;
8060;SDS011;4073;42.626;25.386;2022-11-20T08:53:41;11.20;;;4.73;;
8060;SDS011;4073;42.626;25.386;2022-11-20T08:56:07;12.90;;;5.00;;
8060;SDS011;4073;42.626;25.386;2022-11-20T08:58:34;15.13;;;7.00;;
8060;SDS011;4073;42.626;25.386;2022-11-20T09:01:00;8.73;;;5.00;;
8060;SDS011;4073;42.626;25.386;2022-11-20T09:03:25;17.87;;;5.77;;
8060;SDS011;4073;42.626;25.386;2022-11-20T09:05:56;10.30;;;5.10;;
8060;SDS011;4073;42.626;25.386;2022-11-20T09:08:26;11.43;;;4.50;;
8060;SDS011;4073;42.626;25.386;2022-11-20T09:10:52;11.67;;;5.70;;
8060;SDS011;4073;42.626;25.386;2022-11-20T09:13:19;12.90;;;5.53;;
8060;SDS011;4073;42.626;25.386;2022-11-20T09:15:45;12.10;;;4.83;;
8060;SDS011;4073;42.626;25.386;2022-11-20T09:18:11;8.30;;;5.43;;
8060;SDS011;4073;42.626;25.386;2022-11-20T09:20:36;11.53;;;5.20;;
8060;SDS011;4073;42.626;25.386;2022-11-20T09:23:02;10.83;;;5.20;;
8060;SDS011;4073;42.626;25.386;2022-11-20T09:25:28;7.53;;;4.57;;
8060;SDS011;4073;42.626;25.386;2022-11-20T09:27:54;12.87;;;5.00;;
8060;SDS011;4073;42.626;25.386;2022-11-20T09:30:23;12.70;;;5.37;;
8060;SDS011;4073;42.626;25.386;2022-11-20T09:32:49;10.67;;;6.20;;
8060;SDS011;4073;42.626;25.386;2022-11-20T09:35:15;13.07;;;5.60;;
8060;SDS011;4073;42.626;25.386;2022-11-20T09:37:40;11.90;;;4.90;;
8060;SDS011;4073;42.626;25.386;2022-11-20T09:40:06;9.47;;;3.73;;
8060;SDS011;4073;42.626;25.386;2022-11-20T09:43:01;7.83;;;4.23;;
8060;SDS011;4073;42.626;25.386;2022-11-20T09:54:01;12.77;;;5.27;;
8060;SDS011;4073;42.626;25.386;2022-11-20T09:56:50;10.53;;;4.60;;
8060;SDS011;4073;42.626;25.386;2022-11-20T09:59:23;10.03;;;5.00;;
8060;SDS011;4073;42.626;25.386;2022-11-20T10:02:20;9.60;;;4.00;;
8060;SDS011;4073;42.626;25.386;2022-11-20T10:05:06;10.27;;;5.50;;
8060;SDS011;4073;42.626;25.386;2022-11-20T10:10:18;11.23;;;4.23;;
8060;SDS011;4073;42.626;25.386;2022-11-20T10:24:57;13.63;;;4.60;;
8060;SDS011;4073;42.626;25.386;2022-11-20T10:30:15;15.20;;;5.37;;
8060;SDS011;4073;42.626;25.386;2022-11-20T10:32:46;8.40;;;5.17;;
8060;SDS011;4073;42.626;25.386;2022-11-20T10:37:43;12.67;;;4.20;;
8060;SDS011;4073;42.626;25.386;2022-11-20T10:42:53;10.73;;;5.67;;
8060;SDS011;4073;42.626;25.386;2022-11-20T10:47:50;13.57;;;3.33;;
8060;SDS011;4073;42.626;25.386;2022-11-20T10:50:19;12.23;;;4.13;;
8060;SDS011;4073;42.626;25.386;2022-11-20T10:58:14;13.23;;;3.77;;
8060;SDS011;4073;42.626;25.386;2022-11-20T11:00:48;8.30;;;3.70;;
8060;SDS011;4073;42.626;25.386;2022-11-20T11:03:20;13.93;;;4.70;;
8060;SDS011;4073;42.626;25.386;2022-11-20T11:05:51;7.53;;;3.80;;
8060;SDS011;4073;42.626;25.386;2022-11-20T11:08:23;15.37;;;4.67;;
8060;SDS011;4073;42.626;25.386;2022-11-20T11:10:54;12.73;;;4.67;;
8060;SDS011;4073;42.626;25.386;2022-11-20T11:13:26;14.87;;;4.93;;
8060;SDS011;4073;42.626;25.386;2022-11-20T11:15:53;17.87;;;6.77;;
8060;SDS011;4073;42.626;25.386;2022-11-20T11:18:26;13.03;;;4.57;;
8060;SDS011;4073;42.626;25.386;2022-11-20T11:20:55;9.97;;;5.27;;
8060;SDS011;4073;42.626;25.386;2022-11-20T11:23:40;12.97;;;5.83;;
8060;SDS011;4073;42.626;25.386;2022-11-20T11:29:03;12.47;;;4.73;;
8060;SDS011;4073;42.626;25.386;2022-11-20T11:31:30;14.93;;;5.57;;
8060;SDS011;4073;42.626;25.386;2022-11-20T11:34:07;15.00;;;6.23;;
8060;SDS011;4073;42.626;25.386;2022-11-20T11:36:36;9.50;;;5.13;;
8060;SDS011;4073;42.626;25.386;2022-11-20T11:39:03;18.43;;;5.53;;
8060;SDS011;4073;42.626;25.386;2022-11-20T11:41:32;15.83;;;4.60;;
8060;SDS011;4073;42.626;25.386;2022-11-20T11:44:03;16.83;;;6.17;;
8060;SDS011;4073;42.626;25.386;2022-11-20T11:46:59;16.83;;;6.10;;
8060;SDS011;4073;42.626;25.386;2022-11-20T11:49:25;16.47;;;7.30;;
8060;SDS011;4073;42.626;25.386;2022-11-20T11:57:20;18.60;;;6.20;;
8060;SDS011;4073;42.626;25.386;2022-11-20T12:11:01;15.03;;;5.47;;
8060;SDS011;4073;42.626;25.386;2022-11-20T12:15:59;19.00;;;6.07;;
8060;SDS011;4073;42.626;25.386;2022-11-20T12:18:26;16.27;;;4.83;;
8060;SDS011;4073;42.626;25.386;2022-11-20T12:20:57;16.83;;;6.47;;
8060;SDS011;4073;42.626;25.386;2022-11-20T12:23:44;22.70;;;5.00;;
8060;SDS011;4073;42.626;25.386;2022-11-20T12:40:18;15.80;;;4.77;;
8060;SDS011;4073;42.626;25.386;2022-11-20T12:43:51;13.07;;;4.83;;
8060;SDS011;4073;42.626;25.386;2022-11-20T12:46:25;15.70;;;5.03;;
8060;SDS011;4073;42.626;25.386;2022-11-20T12:57:44;23.37;;;6.50;;
8060;SDS011;4073;42.626;25.386;2022-11-20T13:00:33;19.80;;;5.13;;
8060;SDS011;4073;42.626;25.386;2022-11-20T13:08:35;19.30;;;6.10;;
8060;SDS011;4073;42.626;25.386;2022-11-20T13:11:18;14.97;;;6.00;;
8060;SDS011;4073;42.626;25.386;2022-11-20T13:19:25;14.83;;;5.40;;
8060;SDS011;4073;42.626;25.386;2022-11-20T13:21:53;13.33;;;5.17;;
8060;SDS011;4073;42.626;25.386;2022-11-20T13:26:44;23.10;;;5.23;;
8060;SDS011;4073;42.626;25.386;2022-11-20T13:29:12;20.63;;;5.37;;
8060;SDS011;4073;42.626;25.386;2022-11-20T13:31:43;20.77;;;5.50;;
8060;SDS011;4073;42.626;25.386;2022-11-20T13:34:20;21.73;;;6.53;;
8060;SDS011;4073;42.626;25.386;2022-11-20T13:36:53;28.37;;;5.83;;
8060;SDS011;4073;42.626;25.386;2022-11-20T13:39:27;18.03;;;5.80;;
8060;SDS011;4073;42.626;25.386;2022-11-20T13:42:03;18.83;;;6.00;;
8060;SDS011;4073;42.626;25.386;2022-11-20T13:44:53;23.07;;;6.63;;
8060;SDS011;4073;42.626;25.386;2022-11-20T13:47:27;15.43;;;5.70;;
8060;SDS011;4073;42.626;25.386;2022-11-20T13:49:54;19.33;;;6.50;;
8060;SDS011;4073;42.626;25.386;2022-11-20T13:55:00;20.80;;;5.63;;
8060;SDS011;4073;42.626;25.386;2022-11-20T13:58:03;16.00;;;4.93;;
8060;SDS011;4073;42.626;25.386;2022-11-20T14:00:31;19.87;;;7.03;;
8060;SDS011;4073;42.626;25.386;2022-11-20T14:03:30;24.47;;;7.57;;
8060;SDS011;4073;42.626;25.386;2022-11-20T14:05:50;24.27;;;8.20;;
8060;SDS011;4073;42.626;25.386;2022-11-20T14:08:31;18.57;;;6.77;;
8060;SDS011;4073;42.626;25.386;2022-11-20T14:11:23;19.33;;;7.13;;
8060;SDS011;4073;42.626;25.386;2022-11-20T14:14:24;16.87;;;5.43;;
8060;SDS011;4073;42.626;25.386;2022-11-20T14:16:43;24.03;;;5.83;;
8060;SDS011;4073;42.626;25.386;2022-11-20T14:21:53;25.13;;;7.90;;
8060;SDS011;4073;42.626;25.386;2022-11-20T14:24:31;26.07;;;9.90;;
8060;SDS011;4073;42.626;25.386;2022-11-20T14:26:57;28.63;;;7.33;;
8060;SDS011;4073;42.626;25.386;2022-11-20T14:29:27;21.90;;;6.30;;
8060;SDS011;4073;42.626;25.386;2022-11-20T14:31:58;25.50;;;7.40;;
8060;SDS011;4073;42.626;25.386;2022-11-20T14:34:35;17.93;;;6.47;;
8060;SDS011;4073;42.626;25.386;2022-11-20T14:37:05;24.37;;;6.67;;
8060;SDS011;4073;42.626;25.386;2022-11-20T14:39:37;25.17;;;6.50;;
8060;SDS011;4073;42.626;25.386;2022-11-20T14:42:16;27.23;;;6.80;;
8060;SDS011;4073;42.626;25.386;2022-11-20T14:44:52;26.70;;;9.80;;
8060;SDS011;4073;42.626;25.386;2022-11-20T14:47:21;44.47;;;18.43;;
8060;SDS011;4073;42.626;25.386;2022-11-20T14:49:50;28.80;;;10.80;;
8060;SDS011;4073;42.626;25.386;2022-11-20T14:52:19;19.53;;;7.67;;
8060;SDS011;4073;42.626;25.386;2022-11-20T14:54:48;27.40;;;12.53;;
8060;SDS011;4073;42.626;25.386;2022-11-20T15:02:49;31.33;;;14.50;;
8060;SDS011;4073;42.626;25.386;2022-11-20T15:05:17;39.70;;;15.87;;
8060;SDS011;4073;42.626;25.386;2022-11-20T15:07:47;25.33;;;12.50;;
8060;SDS011;4073;42.626;25.386;2022-11-20T15:10:24;35.50;;;12.90;;
8060;SDS011;4073;42.626;25.386;2022-11-20T15:15:32;26.33;;;9.13;;
8060;SDS011;4073;42.626;25.386;2022-11-20T15:18:04;20.97;;;10.20;;
8060;SDS011;4073;42.626;25.386;2022-11-20T15:20:33;24.70;;;11.37;;
8060;SDS011;4073;42.626;25.386;2022-11-20T15:23:01;32.83;;;15.17;;
8060;SDS011;4073;42.626;25.386;2022-11-20T15:25:26;28.00;;;11.33;;
8060;SDS011;4073;42.626;25.386;2022-11-20T15:27:54;20.07;;;8.33;;
8060;SDS011;4073;42.626;25.386;2022-11-20T15:30:21;25.90;;;10.57;;
8060;SDS011;4073;42.626;25.386;2022-11-20T15:32:48;25.03;;;12.47;;
8060;SDS011;4073;42.626;25.386;2022-11-20T15:35:14;28.43;;;11.90;;
8060;SDS011;4073;42.626;25.386;2022-11-20T15:37:40;25.97;;;12.87;;
8060;SDS011;4073;42.626;25.386;2022-11-20T15:40:06;23.57;;;9.30;;
8060;SDS011;4073;42.626;25.386;2022-11-20T15:42:33;21.60;;;7.60;;
8060;SDS011;4073;42.626;25.386;2022-11-20T15:44:59;20.23;;;10.33;;
8060;SDS011;4073;42.626;25.386;2022-11-20T15:47:26;29.07;;;11.80;;
8060;SDS011;4073;42.626;25.386;2022-11-20T15:49:55;29.60;;;14.93;;
8060;SDS011;4073;42.626;25.386;2022-11-20T15:52:20;26.63;;;10.77;;
8060;SDS011;4073;42.626;25.386;2022-11-20T15:54:46;21.30;;;9.40;;
8060;SDS011;4073;42.626;25.386;2022-11-20T15:57:11;23.63;;;9.13;;
8060;SDS011;4073;42.626;25.386;2022-11-20T15:59:38;16.40;;;7.40;;
8060;SDS011;4073;42.626;25.386;2022-11-20T16:02:12;17.10;;;7.00;;
8060;SDS011;4073;42.626;25.386;2022-11-20T16:04:39;11.90;;;5.57;;
8060;SDS011;4073;42.626;25.386;2022-11-20T16:07:06;16.87;;;6.00;;
8060;SDS011;4073;42.626;25.386;2022-11-20T16:09:32;18.03;;;6.40;;
8060;SDS011;4073;42.626;25.386;2022-11-20T16:11:57;18.90;;;6.93;;
8060;SDS011;4073;42.626;25.386;2022-11-20T16:14:26;20.87;;;8.83;;
8060;SDS011;4073;42.626;25.386;2022-11-20T16:17:11;23.70;;;9.50;;
8060;SDS011;4073;42.626;25.386;2022-11-20T16:19:37;20.53;;;10.60;;
8060;SDS011;4073;42.626;25.386;2022-11-20T16:22:02;35.03;;;19.83;;
8060;SDS011;4073;42.626;25.386;2022-11-20T16:24:28;30.23;;;14.50;;
8060;SDS011;4073;42.626;25.386;2022-11-20T16:26:54;27.10;;;15.70;;
8060;SDS011;4073;42.626;25.386;2022-11-20T16:29:20;26.20;;;16.97;;
8060;SDS011;4073;42.626;25.386;2022-11-20T16:31:46;26.23;;;14.20;;
8060;SDS011;4073;42.626;25.386;2022-11-20T16:34:11;24.77;;;12.23;;
8060;SDS011;4073;42.626;25.386;2022-11-20T16:36:39;28.90;;;13.93;;
8060;SDS011;4073;42.626;25.386;2022-11-20T16:39:05;29.07;;;13.60;;
8060;SDS011;4073;42.626;25.386;2022-11-20T16:41:31;27.73;;;16.17;;
8060;SDS011;4073;42.626;25.386;2022-11-20T16:43:59;23.67;;;13.57;;
8060;SDS011;4073;42.626;25.386;2022-11-20T16:46:27;26.10;;;12.33;;
8060;SDS011;4073;42.626;25.386;2022-11-20T16:48:55;22.00;;;10.50;;
8060;SDS011;4073;42.626;25.386;2022-11-20T16:51:22;22.57;;;9.23;;
8060;SDS011;4073;42.626;25.386;2022-11-20T16:53:49;18.40;;;9.33;;
8060;SDS011;4073;42.626;25.386;2022-11-20T16:56:20;26.93;;;13.47;;
8060;SDS011;4073;42.626;25.386;2022-11-20T16:58:48;24.00;;;13.87;;